Time;durP1;ratioP1;P1;durP2;ratioP2;P2;SDS_P1;SDS_P2;PMS_P1;PMS_P2;Temp;Humidity;BMP_temperature;BMP_pressure;BME280_temperature;BME280_humidity;BME280_pressure;Samples;Min_cycle;Max_cycle;Signal;HPM_P1;HPM_P2
2021/04/09 00:00:47;;;;;;;7.10;2.73;;;1.40;95.50;;;;;;5111525;28;20434;-73
2021/04/09 00:03:14;;;;;;;2.33;2.03;;;1.40;95.80;;;;;;5111748;28;20513;-73
2021/04/09 00:05:41;;;;;;;4.60;2.47;;;1.40;95.80;;;;;;5111365;28;20764;-74
2021/04/09 00:08:07;;;;;;;4.40;2.50;;;1.40;96.00;;;;;;5111388;28;20436;-73
2021/04/09 00:10:35;;;;;;;3.60;2.63;;;1.50;95.90;;;;;;5111110;28;20470;-74
2021/04/09 00:13:03;;;;;;;5.83;2.17;;;1.40;95.90;;;;;;5110834;28;20459;-73
2021/04/09 00:15:30;;;;;;;3.03;2.00;;;1.40;96.10;;;;;;5111630;28;20444;-73
2021/04/09 00:17:56;;;;;;;2.40;2.20;;;1.40;96.10;;;;;;5111695;28;20471;-74
2021/04/09 00:20:24;;;;;;;6.40;2.90;;;1.40;96.30;;;;;;5111529;28;20446;-74
2021/04/09 00:22:52;;;;;;;2.87;2.20;;;1.40;96.40;;;;;;5111420;28;20535;-75
2021/04/09 00:25:20;;;;;;;3.50;2.00;;;1.40;96.70;;;;;;5111399;28;20426;-73
2021/04/09 00:27:50;;;;;;;1.77;1.67;;;1.30;97.00;;;;;;5111286;28;20428;-74
2021/04/09 00:30:26;;;;;;;2.97;2.67;;;1.30;97.10;;;;;;5111183;28;20427;-74
2021/04/09 00:32:53;;;;;;;2.40;1.90;;;1.30;97.40;;;;;;5111192;28;20452;-73
2021/04/09 00:35:20;;;;;;;3.50;2.40;;;1.40;98.30;;;;;;5111429;28;20426;-74
2021/04/09 00:37:47;;;;;;;4.27;2.47;;;1.40;98.00;;;;;;5111415;28;20471;-74
2021/04/09 00:40:14;;;;;;;3.47;2.40;;;1.40;98.20;;;;;;5111091;28;20535;-73
2021/04/09 00:42:42;;;;;;;3.83;2.33;;;1.40;98.50;;;;;;5111269;28;20866;-74
2021/04/09 00:45:11;;;;;;;2.90;2.30;;;1.40;98.60;;;;;;5111083;28;20439;-74
2021/04/09 00:47:39;;;;;;;3.27;2.57;;;1.40;98.50;;;;;;5111563;28;20764;-73
2021/04/09 00:50:07;;;;;;;5.03;2.27;;;1.40;98.90;;;;;;5111091;28;20459;-74
2021/04/09 00:52:36;;;;;;;2.63;1.70;;;1.40;99.00;;;;;;5111418;28;20440;-74
2021/04/09 00:55:03;;;;;;;3.47;2.50;;;1.30;99.30;;;;;;5111073;28;20444;-74
2021/04/09 00:57:31;;;;;;;4.40;3.20;;;1.40;99.60;;;;;;5110566;28;20471;-73
2021/04/09 00:59:59;;;;;;;3.57;1.80;;;1.40;99.90;;;;;;5110128;28;21003;-74
2021/04/09 01:02:25;;;;;;;3.90;2.63;;;1.40;99.90;;;;;;5111143;28;20539;-73
2021/04/09 01:04:53;;;;;;;4.10;2.37;;;1.40;99.90;;;;;;5111220;28;20458;-73
2021/04/09 01:07:20;;;;;;;4.43;2.63;;;1.30;99.90;;;;;;5111339;28;20431;-73
2021/04/09 01:09:47;;;;;;;3.37;2.00;;;1.30;99.90;;;;;;5110777;28;20420;-74
2021/04/09 01:12:14;;;;;;;3.83;2.20;;;1.20;99.90;;;;;;5111065;28;20451;-74
2021/04/09 01:14:41;;;;;;;2.17;1.90;;;1.20;99.90;;;;;;5110802;28;20480;-74
2021/04/09 01:17:14;;;;;;;2.00;1.80;;;1.10;99.90;;;;;;5111078;28;20471;-74
2021/04/09 01:20:15;;;;;;;2.17;1.87;;;1.10;99.90;;;;;;5113468;28;20454;-73
2021/04/09 01:22:47;;;;;;;3.47;2.20;;;1.10;99.90;;;;;;5114935;28;20439;-74
2021/04/09 01:25:31;;;;;;;2.83;2.03;;;1.00;99.90;;;;;;5094578;28;20528;-74
2021/04/09 01:28:09;;;;;;;1.80;1.70;;;1.00;99.90;;;;;;5094242;28;20489;-74
2021/04/09 01:30:54;;;;;;;3.60;2.10;;;1.00;99.90;;;;;;5094066;28;20452;-74
2021/04/09 01:33:27;;;;;;;3.10;2.00;;;1.00;99.90;;;;;;5094344;28;20437;-73
2021/04/09 01:36:00;;;;;;;1.87;1.70;;;1.00;99.90;;;;;;5094140;28;20428;-74
2021/04/09 01:38:30;;;;;;;3.77;2.47;;;1.10;99.90;;;;;;5094309;28;20440;-74
2021/04/09 01:40:58;;;;;;;3.13;2.03;;;1.10;99.90;;;;;;5094180;28;20440;-73
2021/04/09 01:43:26;;;;;;;1.60;1.50;;;1.10;99.90;;;;;;5093931;28;20828;-74
2021/04/09 01:45:54;;;;;;;2.10;1.90;;;1.20;99.90;;;;;;5094194;28;20424;-74
2021/04/09 01:48:23;;;;;;;2.60;1.90;;;1.10;99.90;;;;;;5093984;28;20429;-74
2021/04/09 01:50:51;;;;;;;3.07;2.00;;;1.10;99.90;;;;;;5093811;28;20866;-74
2021/04/09 01:53:19;;;;;;;2.00;1.77;;;1.10;99.90;;;;;;5098333;28;20448;-74
2021/04/09 01:55:48;;;;;;;4.60;2.33;;;1.20;99.90;;;;;;5114135;28;20424;-74
2021/04/09 01:58:16;;;;;;;1.93;1.73;;;1.10;99.90;;;;;;5113896;27;20472;-73
2021/04/09 02:00:43;;;;;;;3.60;2.10;;;1.10;99.90;;;;;;5113637;28;20977;-74
2021/04/09 02:03:11;;;;;;;2.83;2.27;;;1.20;99.90;;;;;;5113518;28;20456;-74
2021/04/09 02:05:40;;;;;;;5.20;2.30;;;1.20;99.90;;;;;;5093684;28;20807;-73
2021/04/09 02:08:11;;;;;;;1.60;1.50;;;1.20;99.90;;;;;;5092805;28;20940;-74
2021/04/09 02:10:38;;;;;;;2.93;1.90;;;1.30;99.90;;;;;;5093539;28;20861;-73
2021/04/09 02:13:06;;;;;;;3.60;2.10;;;1.30;99.90;;;;;;5093512;28;20443;-73
2021/04/09 02:15:33;;;;;;;3.03;2.10;;;1.40;99.90;;;;;;5093735;28;20439;-74
2021/04/09 02:18:01;;;;;;;2.43;2.07;;;1.40;99.90;;;;;;5093701;28;20471;-74
2021/04/09 02:20:28;;;;;;;3.87;2.17;;;1.40;99.90;;;;;;5093607;28;20417;-74
2021/04/09 02:22:55;;;;;;;2.30;2.00;;;1.50;99.90;;;;;;5094730;28;21031;-74
2021/04/09 02:25:23;;;;;;;4.87;1.90;;;1.50;99.90;;;;;;5114143;28;20476;-74
2021/04/09 02:27:52;;;;;;;2.47;1.83;;;1.50;99.90;;;;;;5113921;28;20474;-74
2021/04/09 02:30:21;;;;;;;4.23;2.03;;;1.50;99.90;;;;;;5113258;28;20510;-74
2021/04/09 02:32:48;;;;;;;5.73;2.20;;;1.50;99.90;;;;;;5113863;28;20462;-74
2021/04/09 02:35:16;;;;;;;2.23;1.80;;;1.50;99.90;;;;;;5113582;28;20913;-74
2021/04/09 02:37:43;;;;;;;6.90;2.10;;;1.40;99.90;;;;;;5113318;28;20484;-74
2021/04/09 02:40:14;;;;;;;4.07;2.23;;;1.30;99.90;;;;;;5113116;28;20869;-74
2021/04/09 02:42:44;;;;;;;1.90;1.80;;;1.30;99.90;;;;;;5113499;28;20457;-74
2021/04/09 02:45:13;;;;;;;3.27;2.10;;;1.30;99.90;;;;;;5113516;28;20435;-74
2021/04/09 02:47:42;;;;;;;2.67;2.00;;;1.20;99.90;;;;;;5113764;28;20924;-74
2021/04/09 02:50:13;;;;;;;18.67;2.87;;;1.10;99.90;;;;;;5113065;28;20427;-74
2021/04/09 02:52:46;;;;;;;2.17;1.87;;;1.20;99.90;;;;;;5113004;28;20468;-74
2021/04/09 02:55:17;;;;;;;4.13;1.83;;;1.20;99.90;;;;;;5113207;28;20420;-74
2021/04/09 02:57:47;;;;;;;6.87;2.00;;;1.10;99.90;;;;;;5113317;28;20474;-74
2021/04/09 03:00:14;;;;;;;2.60;2.27;;;1.20;99.90;;;;;;5112715;28;20968;-74
2021/04/09 03:02:42;;;;;;;3.37;2.13;;;1.20;99.90;;;;;;5113093;28;20440;-74
2021/04/09 03:05:12;;;;;;;2.40;2.07;;;1.20;99.90;;;;;;5112334;28;20440;-74
2021/04/09 03:07:40;;;;;;;2.60;1.83;;;1.20;99.90;;;;;;5111468;28;20788;-74
2021/04/09 03:10:09;;;;;;;4.30;1.63;;;1.20;99.90;;;;;;5112063;28;20451;-74
2021/04/09 03:12:37;;;;;;;2.63;1.33;;;1.30;99.90;;;;;;5112949;28;20932;-74
2021/04/09 03:15:05;;;;;;;2.00;1.90;;;1.30;99.90;;;;;;5112452;28;20421;-74
2021/04/09 03:17:37;;;;;;;2.57;1.90;;;1.30;99.90;;;;;;5112528;28;20463;-74
2021/04/09 03:20:05;;;;;;;5.40;2.47;;;1.30;99.90;;;;;;5112532;28;20448;-74
2021/04/09 03:22:32;;;;;;;1.93;1.47;;;1.30;99.90;;;;;;5112648;28;20816;-74
2021/04/09 03:24:59;;;;;;;2.30;2.10;;;1.20;99.90;;;;;;5112405;28;20435;-74
2021/04/09 03:27:26;;;;;;;2.77;2.00;;;1.20;99.90;;;;;;5112924;28;20476;-74
2021/04/09 03:29:53;;;;;;;2.53;1.80;;;1.20;99.90;;;;;;5111102;28;20436;-74
2021/04/09 03:32:20;;;;;;;1.77;1.50;;;1.20;99.90;;;;;;5112285;28;20528;-74
2021/04/09 03:34:47;;;;;;;3.40;1.67;;;1.20;99.90;;;;;;5112146;28;20421;-74
2021/04/09 03:37:14;;;;;;;7.53;1.50;;;1.10;99.90;;;;;;5112351;28;20471;-74
2021/04/09 03:39:41;;;;;;;5.97;1.60;;;1.20;99.90;;;;;;5111953;28;20421;-74
2021/04/09 03:42:08;;;;;;;3.77;1.60;;;1.30;99.90;;;;;;5112014;28;20995;-74
2021/04/09 03:44:35;;;;;;;4.50;2.40;;;1.40;99.90;;;;;;5111995;28;20951;-74
2021/04/09 03:47:03;;;;;;;3.93;1.47;;;1.50;99.90;;;;;;5111807;28;20470;-76
2021/04/09 03:49:30;;;;;;;3.23;1.80;;;1.50;99.90;;;;;;5111858;28;20905;-74
2021/04/09 03:51:57;;;;;;;1.60;1.30;;;1.50;99.90;;;;;;5111957;28;20444;-74
2021/04/09 03:54:23;;;;;;;3.17;1.73;;;1.50;99.90;;;;;;5111981;28;20922;-74
2021/04/09 03:56:50;;;;;;;1.57;1.40;;;1.50;99.70;;;;;;5112086;28;20460;-73
2021/04/09 03:59:17;;;;;;;2.43;1.43;;;1.60;99.90;;;;;;5111616;28;20747;-74
2021/04/09 04:01:44;;;;;;;4.63;1.83;;;1.50;99.90;;;;;;5111784;28;20450;-74
2021/04/09 04:04:12;;;;;;;2.20;1.60;;;1.50;99.90;;;;;;5111964;28;20500;-74
2021/04/09 04:06:38;;;;;;;2.27;2.07;;;1.50;99.90;;;;;;5111907;28;20415;-74
2021/04/09 04:09:06;;;;;;;2.00;1.50;;;1.50;99.90;;;;;;5110899;28;20428;-74
2021/04/09 04:11:32;;;;;;;3.90;1.90;;;1.50;99.90;;;;;;5111342;28;20543;-74
2021/04/09 04:13:59;;;;;;;2.13;1.93;;;1.40;99.90;;;;;;5111644;28;20941;-74
2021/04/09 04:16:26;;;;;;;2.37;1.70;;;1.30;99.90;;;;;;5111446;28;20930;-74
2021/04/09 04:18:53;;;;;;;2.87;1.97;;;1.10;99.90;;;;;;5111651;28;20448;-74
2021/04/09 04:21:20;;;;;;;3.63;2.00;;;1.10;99.90;;;;;;5111371;28;21206;-74
2021/04/09 04:23:48;;;;;;;4.90;2.10;;;1.00;99.90;;;;;;5111479;28;20458;-74
2021/04/09 04:26:15;;;;;;;2.33;1.97;;;0.90;99.90;;;;;;5111598;28;20409;-74
2021/04/09 04:28:41;;;;;;;3.20;2.20;;;0.90;99.90;;;;;;5111309;28;20432;-74
2021/04/09 04:31:08;;;;;;;2.70;1.90;;;0.90;99.90;;;;;;5111518;28;20952;-74
2021/04/09 04:33:35;;;;;;;2.80;2.07;;;0.80;99.90;;;;;;5111565;28;20450;-74
2021/04/09 04:36:02;;;;;;;2.80;1.97;;;0.90;99.90;;;;;;5111901;28;20444;-73
2021/04/09 04:38:29;;;;;;;2.70;2.27;;;0.80;99.90;;;;;;5111396;28;20552;-74
2021/04/09 04:40:57;;;;;;;3.77;2.30;;;0.70;99.90;;;;;;5111103;28;20443;-74
2021/04/09 04:43:23;;;;;;;2.63;2.00;;;0.70;99.90;;;;;;5111015;28;20442;-74
2021/04/09 04:45:50;;;;;;;2.07;1.67;;;0.80;99.90;;;;;;5111416;28;20428;-74
2021/04/09 04:48:17;;;;;;;4.10;1.90;;;0.90;99.90;;;;;;5111602;28;20526;-74
2021/04/09 04:50:44;;;;;;;1.77;1.67;;;0.90;99.90;;;;;;5111463;28;20436;-75
2021/04/09 04:53:10;;;;;;;2.30;2.00;;;1.00;99.90;;;;;;5111594;28;20451;-74
2021/04/09 04:55:38;;;;;;;2.80;1.97;;;1.00;99.90;;;;;;5115624;28;20424;-75
2021/04/09 04:58:05;;;;;;;5.40;2.13;;;1.00;99.90;;;;;;5115468;28;20543;-75
2021/04/09 05:00:32;;;;;;;2.70;1.67;;;1.10;99.90;;;;;;5115060;28;20764;-74
2021/04/09 05:02:59;;;;;;;3.23;1.93;;;1.20;99.90;;;;;;5115145;28;20440;-74
2021/04/09 05:05:25;;;;;;;6.97;1.90;;;1.30;99.90;;;;;;5111890;28;20440;-68
2021/04/09 05:07:52;;;;;;;2.33;1.90;;;1.40;99.90;;;;;;5114820;28;20428;-68
2021/04/09 05:10:19;;;;;;;2.70;2.00;;;1.60;99.90;;;;;;5114665;28;20415;-69
2021/04/09 05:12:46;;;;;;;3.40;2.30;;;1.70;99.90;;;;;;5107036;28;20809;-68
2021/04/09 05:15:14;;;;;;;3.10;1.47;;;1.90;99.70;;;;;;5111336;28;20445;-68
2021/04/09 05:17:41;;;;;;;2.90;2.10;;;2.00;99.40;;;;;;5094140;28;20475;-68
2021/04/09 05:20:08;;;;;;;7.00;1.97;;;2.10;98.90;;;;;;5094287;28;20431;-68
2021/04/09 05:22:35;;;;;;;4.03;2.77;;;2.20;98.70;;;;;;5111530;28;20988;-68
2021/04/09 05:25:01;;;;;;;3.23;2.33;;;2.20;99.10;;;;;;5114334;28;20443;-68
2021/04/09 05:27:28;;;;;;;4.80;2.27;;;2.20;99.50;;;;;;5114561;28;20928;-68
2021/04/09 05:29:56;;;;;;;1.97;1.80;;;2.20;99.40;;;;;;5113939;28;20444;-68
2021/04/09 05:32:22;;;;;;;4.17;2.17;;;2.30;98.40;;;;;;5114250;28;20477;-68
2021/04/09 05:34:49;;;;;;;3.77;1.80;;;2.30;99.20;;;;;;5114451;28;20952;-68
2021/04/09 05:37:16;;;;;;;4.40;2.10;;;2.40;99.30;;;;;;5111008;28;20792;-68
2021/04/09 05:39:42;;;;;;;3.20;2.00;;;2.40;99.50;;;;;;5114140;28;20426;-68
2021/04/09 05:42:10;;;;;;;3.23;2.40;;;2.60;99.20;;;;;;5102580;28;20451;-68
2021/04/09 05:44:36;;;;;;;3.43;2.30;;;2.60;98.30;;;;;;5114159;28;20424;-68
2021/04/09 05:47:07;;;;;;;4.20;2.73;;;2.70;96.30;;;;;;5114244;28;20428;-69
2021/04/09 05:49:34;;;;;;;4.73;2.93;;;2.80;96.80;;;;;;5113896;28;20507;-69
2021/04/09 05:52:02;;;;;;;3.50;2.30;;;3.00;95.90;;;;;;5114139;28;20829;-69
2021/04/09 05:54:29;;;;;;;4.97;2.33;;;3.20;95.20;;;;;;5113941;28;20469;-69
2021/04/09 05:56:56;;;;;;;3.03;2.50;;;3.30;94.90;;;;;;5113751;28;20968;-69
2021/04/09 05:59:23;;;;;;;3.17;2.17;;;3.40;95.90;;;;;;5112168;28;20432;-69
2021/04/09 06:01:49;;;;;;;3.80;2.00;;;3.50;98.30;;;;;;5113796;28;20850;-70
2021/04/09 06:04:17;;;;;;;1.40;1.30;;;3.60;96.10;;;;;;5110509;28;20428;-70
2021/04/09 06:06:44;;;;;;;2.20;2.00;;;3.70;94.80;;;;;;5106562;28;20913;-69
2021/04/09 06:09:11;;;;;;;2.50;1.70;;;3.80;94.60;;;;;;5104048;28;20906;-69
2021/04/09 06:11:38;;;;;;;3.50;2.60;;;3.90;94.10;;;;;;5093302;28;20437;-69
2021/04/09 06:14:04;;;;;;;3.60;2.53;;;4.10;92.80;;;;;;5093135;28;20417;-69
2021/04/09 06:16:32;;;;;;;2.30;1.97;;;4.20;92.80;;;;;;5093209;28;20775;-69
2021/04/09 06:18:58;;;;;;;4.13;2.33;;;4.40;91.40;;;;;;5092897;28;20433;-69
2021/04/09 06:21:26;;;;;;;1.93;1.63;;;4.60;90.50;;;;;;5092859;28;20509;-69
2021/04/09 06:23:53;;;;;;;3.10;1.70;;;4.80;89.10;;;;;;5093089;28;20424;-69
2021/04/09 06:26:19;;;;;;;3.43;1.80;;;4.90;87.80;;;;;;5101509;28;20444;-69
2021/04/09 06:28:46;;;;;;;4.13;1.43;;;5.00;87.90;;;;;;5112162;28;20440;-69
2021/04/09 06:31:13;;;;;;;4.63;1.90;;;5.10;89.30;;;;;;5112865;28;20838;-69
2021/04/09 06:33:39;;;;;;;2.13;1.53;;;5.20;89.00;;;;;;5113297;28;20478;-69
2021/04/09 06:36:07;;;;;;;3.77;1.60;;;5.40;87.70;;;;;;5113266;28;20440;-69
2021/04/09 06:38:34;;;;;;;3.20;1.77;;;5.40;87.50;;;;;;5113132;28;20475;-69
2021/04/09 06:41:02;;;;;;;2.23;1.90;;;5.50;86.80;;;;;;5112951;28;20442;-69
2021/04/09 06:43:30;;;;;;;3.27;2.70;;;5.60;85.60;;;;;;5112889;28;20441;-70
2021/04/09 06:45:57;;;;;;;2.23;1.87;;;5.80;84.90;;;;;;5112808;28;20433;-69
2021/04/09 06:48:23;;;;;;;1.67;1.27;;;5.90;83.10;;;;;;5113070;28;20432;-69
2021/04/09 06:50:50;;;;;;;3.30;1.90;;;6.10;81.00;;;;;;5112691;28;20561;-70
2021/04/09 06:53:17;;;;;;;2.10;1.90;;;6.20;82.30;;;;;;5111773;28;20465;-69
2021/04/09 06:55:46;;;;;;;2.57;1.70;;;6.30;78.90;;;;;;5112572;28;20427;-69
2021/04/09 06:58:15;;;;;;;2.00;1.80;;;6.50;81.40;;;;;;5112591;28;20470;-69
2021/04/09 07:00:42;;;;;;;3.80;1.73;;;6.50;78.00;;;;;;5112529;28;20497;-69
2021/04/09 07:03:10;;;;;;;2.57;1.30;;;6.70;77.30;;;;;;5112436;28;20466;-70
2021/04/09 07:05:37;;;;;;;3.17;2.10;;;6.80;75.40;;;;;;5112743;28;20439;-69
2021/04/09 07:08:04;;;;;;;2.37;2.10;;;7.00;76.80;;;;;;5111667;28;20449;-69
2021/04/09 07:10:31;;;;;;;8.00;2.13;;;7.00;72.80;;;;;;5112285;28;20431;-70
2021/04/09 07:13:07;;;;;;;5.03;2.55;;;7.10;73.10;;;;;;5111113;28;20918;-69
2021/04/09 07:15:41;;;;;;;2.60;1.70;;;7.20;76.20;;;;;;5111941;28;20231;-70
2021/04/09 07:18:09;;;;;;;2.00;1.80;;;7.20;73.50;;;;;;5112052;28;20470;-68
2021/04/09 07:20:37;;;;;;;2.30;1.50;;;7.20;73.50;;;;;;5112009;28;20430;-69
2021/04/09 07:23:06;;;;;;;4.40;2.07;;;7.20;72.50;;;;;;5112040;28;20462;-69
2021/04/09 07:25:35;;;;;;;3.27;2.50;;;7.20;70.30;;;;;;5111982;28;20489;-69
2021/04/09 07:28:17;;;;;;;5.57;2.00;;;7.30;69.70;;;;;;5112136;28;20436;-68
2021/04/09 07:30:49;;;;;;;1.70;1.30;;;7.30;67.10;;;;;;5111800;28;20439;-69
2021/04/09 07:33:17;;;;;;;2.90;1.70;;;7.30;67.20;;;;;;5112095;28;20450;-69
2021/04/09 07:35:48;;;;;;;4.00;2.20;;;7.40;66.90;;;;;;5111883;28;20452;-68
2021/04/09 07:38:20;;;;;;;2.23;1.50;;;7.40;66.80;;;;;;5111902;28;20480;-68
2021/04/09 07:40:53;;;;;;;10.20;3.03;;;7.40;70.40;;;;;;5110706;28;20455;-68
2021/04/09 07:43:21;;;;;;;2.30;1.80;;;7.40;68.60;;;;;;5111847;28;20450;-68
2021/04/09 07:45:48;;;;;;;2.87;1.97;;;7.40;68.70;;;;;;5111979;28;20423;-68
2021/04/09 07:48:18;;;;;;;5.70;2.30;;;7.50;66.90;;;;;;5111780;28;20436;-66
2021/04/09 07:50:49;;;;;;;2.90;2.07;;;7.60;68.00;;;;;;5111570;28;20523;-68
2021/04/09 07:53:18;;;;;;;7.10;2.20;;;7.60;66.60;;;;;;5111771;28;21017;-68
2021/04/09 07:55:45;;;;;;;9.20;2.50;;;7.70;67.50;;;;;;5111531;28;20465;-68
2021/04/09 07:58:14;;;;;;;4.47;2.60;;;7.70;66.00;;;;;;5111569;28;20890;-68
2021/04/09 08:00:42;;;;;;;3.03;2.20;;;7.90;66.00;;;;;;5111520;28;20816;-68
2021/04/09 08:03:09;;;;;;;2.43;2.20;;;7.90;63.90;;;;;;5111476;28;20442;-68
2021/04/09 08:05:36;;;;;;;7.67;2.60;;;8.00;63.50;;;;;;5111680;28;20470;-69
2021/04/09 08:08:03;;;;;;;2.30;2.10;;;8.10;63.20;;;;;;5111539;28;20435;-68
2021/04/09 08:10:31;;;;;;;6.30;2.53;;;8.20;63.40;;;;;;5111174;28;20431;-68
2021/04/09 08:12:59;;;;;;;4.27;2.73;;;8.20;63.10;;;;;;5108028;28;20447;-67
2021/04/09 08:15:27;;;;;;;2.87;2.13;;;8.30;61.10;;;;;;5111443;28;20430;-67
2021/04/09 08:18:03;;;;;;;3.53;2.00;;;8.30;62.00;;;;;;5111452;28;20984;-68
2021/04/09 08:20:32;;;;;;;2.70;2.03;;;8.40;62.60;;;;;;5110256;28;20433;-67
2021/04/09 08:23:03;;;;;;;4.57;1.93;;;8.40;62.00;;;;;;5111479;28;20939;-67
2021/04/09 08:25:30;;;;;;;3.57;2.67;;;8.50;61.70;;;;;;5110965;28;20423;-67
2021/04/09 08:27:59;;;;;;;4.17;2.37;;;8.50;61.90;;;;;;5109967;28;20448;-68
2021/04/09 08:30:28;;;;;;;3.80;2.07;;;8.60;62.50;;;;;;5108695;28;20507;-67
2021/04/09 08:32:55;;;;;;;3.03;2.73;;;8.70;63.40;;;;;;5111144;28;20553;-67
2021/04/09 08:35:24;;;;;;;3.10;2.20;;;8.70;62.50;;;;;;5111174;28;20435;-67
2021/04/09 08:37:51;;;;;;;3.90;2.43;;;8.70;61.00;;;;;;5111176;28;20476;-67
2021/04/09 08:40:19;;;;;;;3.13;2.83;;;8.80;62.70;;;;;;5111006;28;20427;-67
2021/04/09 08:42:46;;;;;;;3.70;2.60;;;8.80;61.90;;;;;;5111367;28;20825;-67
2021/04/09 08:45:14;;;;;;;2.43;2.20;;;8.70;61.30;;;;;;5110787;28;20442;-68
2021/04/09 08:47:42;;;;;;;3.70;2.50;;;8.80;65.50;;;;;;5111588;28;20439;-67
2021/04/09 08:50:11;;;;;;;4.00;2.10;;;8.70;63.50;;;;;;5110479;28;20456;-67
2021/04/09 08:52:41;;;;;;;6.47;2.40;;;8.90;66.30;;;;;;5111055;28;20448;-67
2021/04/09 08:55:10;;;;;;;4.80;3.30;;;8.60;65.10;;;;;;5110872;28;20777;-67
2021/04/09 08:57:38;;;;;;;4.10;2.53;;;8.60;66.60;;;;;;5090616;28;20474;-67
2021/04/09 09:00:18;;;;;;;8.90;2.70;;;8.60;66.30;;;;;;5095517;28;20427;-67
2021/04/09 09:02:49;;;;;;;3.30;2.40;;;8.50;66.50;;;;;;5090233;28;20452;-67
2021/04/09 09:05:17;;;;;;;5.10;2.53;;;8.60;66.70;;;;;;5090432;28;20525;-67
2021/04/09 09:08:06;;;;;;;5.43;2.90;;;8.60;66.50;;;;;;5093468;28;20436;-67
2021/04/09 09:10:55;;;;;;;5.30;2.60;;;8.90;69.40;;;;;;5110562;28;20428;-67
2021/04/09 09:13:31;;;;;;;2.93;2.50;;;9.20;69.20;;;;;;5110678;28;20453;-67
2021/04/09 09:16:02;;;;;;;4.70;2.57;;;9.40;67.40;;;;;;5110480;28;20534;-67
2021/04/09 09:18:46;;;;;;;9.30;2.87;;;9.50;67.80;;;;;;5110586;28;20475;-67
2021/04/09 09:21:25;;;;;;;3.20;2.10;;;9.60;66.90;;;;;;5095912;28;20530;-67
2021/04/09 09:23:54;;;;;;;5.97;2.47;;;9.70;68.00;;;;;;5110648;28;20920;-68
2021/04/09 09:26:22;;;;;;;3.10;2.27;;;9.60;66.80;;;;;;5110639;28;20423;-67
2021/04/09 09:29:04;;;;;;;2.27;2.07;;;9.70;66.60;;;;;;5111084;28;20939;-66
2021/04/09 09:31:32;;;;;;;2.70;2.07;;;9.70;68.50;;;;;;5109897;28;20471;-67
2021/04/09 09:34:36;;;;;;;2.73;2.37;;;9.50;64.00;;;;;;5110705;28;20427;-67
2021/04/09 09:37:06;;;;;;;4.27;2.83;;;9.40;67.20;;;;;;5110639;28;20550;-67
2021/04/09 09:39:42;;;;;;;3.50;1.93;;;9.60;67.90;;;;;;5111580;28;20436;-67
2021/04/09 09:42:15;;;;;;;5.70;2.83;;;9.80;68.30;;;;;;5114285;28;20539;-67
2021/04/09 09:44:47;;;;;;;3.40;2.57;;;10.10;68.50;;;;;;5114343;28;20421;-67
2021/04/09 09:47:24;;;;;;;3.60;1.90;;;10.00;64.20;;;;;;5114015;28;20486;-67
2021/04/09 09:50:12;;;;;;;3.67;3.00;;;9.70;66.00;;;;;;5113908;28;20488;-67
2021/04/09 09:52:44;;;;;;;5.13;2.70;;;9.50;66.40;;;;;;5113797;28;20452;-67
2021/04/09 09:55:15;;;;;;;4.80;3.60;;;9.40;68.10;;;;;;5113954;28;20488;-67
2021/04/09 09:57:44;;;;;;;4.97;2.50;;;9.50;68.50;;;;;;5113754;28;20463;-67
2021/04/09 10:00:11;;;;;;;4.17;2.70;;;9.30;64.30;;;;;;5113489;28;20967;-67
2021/04/09 10:02:38;;;;;;;3.77;3.10;;;9.40;65.00;;;;;;5113777;28;20444;-67
2021/04/09 10:05:06;;;;;;;3.50;2.67;;;9.40;65.40;;;;;;5113902;28;20443;-67
2021/04/09 10:07:33;;;;;;;3.90;2.80;;;9.30;63.50;;;;;;5113729;28;20446;-67
2021/04/09 10:10:00;;;;;;;3.30;2.47;;;9.50;67.30;;;;;;5113519;28;20431;-67
2021/04/09 10:12:27;;;;;;;5.50;2.93;;;9.70;65.10;;;;;;5113556;28;20440;-67
2021/04/09 10:14:54;;;;;;;3.43;1.93;;;9.80;63.10;;;;;;5113502;28;20910;-67
2021/04/09 10:17:21;;;;;;;5.40;3.63;;;9.70;62.50;;;;;;5113616;28;20472;-68
2021/04/09 10:19:58;;;;;;;5.40;2.53;;;9.90;62.40;;;;;;5113359;28;20592;-67
2021/04/09 10:22:25;;;;;;;6.57;3.07;;;10.20;63.30;;;;;;5113379;28;20824;-67
2021/04/09 10:24:52;;;;;;;3.67;2.80;;;10.50;63.90;;;;;;5113403;28;20939;-67
2021/04/09 10:27:18;;;;;;;3.03;2.53;;;10.80;62.10;;;;;;5113413;28;20500;-67
2021/04/09 10:29:46;;;;;;;3.60;2.60;;;11.10;62.40;;;;;;5112144;28;20496;-67
2021/04/09 10:32:18;;;;;;;2.37;2.10;;;11.30;59.00;;;;;;5113141;28;20539;-67
2021/04/09 10:34:47;;;;;;;6.03;2.77;;;11.30;58.80;;;;;;5113245;28;20428;-67
2021/04/09 10:37:24;;;;;;;2.63;2.43;;;11.50;61.00;;;;;;5113133;28;20464;-67
2021/04/09 10:39:52;;;;;;;5.00;2.30;;;11.50;57.50;;;;;;5112826;28;20842;-67
2021/04/09 10:42:19;;;;;;;3.83;2.60;;;11.60;58.70;;;;;;5113051;28;20446;-67
2021/04/09 10:44:47;;;;;;;3.40;2.40;;;11.50;56.10;;;;;;5112949;28;20420;-67
2021/04/09 10:47:14;;;;;;;3.23;2.30;;;11.60;56.20;;;;;;5112954;28;20432;-67
2021/04/09 10:49:42;;;;;;;2.90;2.40;;;11.40;56.10;;;;;;5112741;28;21066;-67
2021/04/09 10:52:11;;;;;;;4.13;2.37;;;11.60;56.90;;;;;;5111610;27;20471;-67
2021/04/09 10:54:39;;;;;;;3.27;2.43;;;11.60;55.70;;;;;;5112905;28;20425;-67
2021/04/09 10:57:07;;;;;;;3.57;2.80;;;11.70;56.30;;;;;;5112671;28;20450;-67
2021/04/09 10:59:36;;;;;;;5.00;2.87;;;11.80;56.80;;;;;;5113975;28;20477;-67
2021/04/09 11:02:05;;;;;;;4.87;2.87;;;11.90;55.80;;;;;;5112180;28;20532;-67
2021/04/09 11:04:33;;;;;;;4.10;3.20;;;11.90;54.50;;;;;;5112692;28;20424;-67
2021/04/09 11:07:03;;;;;;;3.40;2.37;;;12.20;55.20;;;;;;5111887;28;20451;-66
2021/04/09 11:09:42;;;;;;;4.37;2.60;;;12.30;53.50;;;;;;5112488;28;20428;-67
2021/04/09 11:12:20;;;;;;;3.27;2.40;;;12.40;54.20;;;;;;5112657;28;20448;-67
2021/04/09 11:14:47;;;;;;;4.00;2.87;;;12.50;54.50;;;;;;5112461;28;21234;-67
2021/04/09 11:17:26;;;;;;;5.50;2.57;;;12.60;54.00;;;;;;5112122;28;20510;-67
2021/04/09 11:19:55;;;;;;;3.97;2.63;;;12.70;55.60;;;;;;5112246;28;20485;-67
2021/04/09 11:22:23;;;;;;;4.50;2.50;;;12.70;54.50;;;;;;5108449;28;20488;-66
2021/04/09 11:25:01;;;;;;;5.20;2.47;;;12.80;54.80;;;;;;5112534;28;20839;-67
2021/04/09 11:27:32;;;;;;;5.00;2.30;;;13.00;53.20;;;;;;5111680;28;20444;-67
2021/04/09 11:30:13;;;;;;;3.63;2.67;;;12.90;53.80;;;;;;5111265;28;20440;-67
2021/04/09 11:32:44;;;;;;;2.27;1.90;;;12.80;53.80;;;;;;5091302;28;20447;-67
2021/04/09 11:35:12;;;;;;;4.63;2.53;;;12.60;49.80;;;;;;5091805;28;21024;-67
2021/04/09 11:37:43;;;;;;;4.77;3.13;;;12.50;51.80;;;;;;5091725;28;20999;-67
2021/04/09 11:40:12;;;;;;;7.13;2.63;;;12.40;53.20;;;;;;5091610;28;20432;-67
2021/04/09 11:42:39;;;;;;;5.03;2.97;;;12.40;52.40;;;;;;5091513;28;20467;-67
2021/04/09 11:45:08;;;;;;;4.57;2.90;;;12.40;53.30;;;;;;5091527;28;20430;-67
2021/04/09 11:47:36;;;;;;;3.50;3.00;;;12.50;53.70;;;;;;5091300;28;20481;-67
2021/04/09 11:50:07;;;;;;;2.87;2.60;;;12.60;53.90;;;;;;5091080;28;20429;-67
2021/04/09 11:52:49;;;;;;;2.90;2.40;;;12.90;54.00;;;;;;5091471;28;20552;-67
2021/04/09 11:55:17;;;;;;;7.87;2.70;;;13.00;51.20;;;;;;5091328;28;20425;-67
2021/04/09 11:57:44;;;;;;;3.03;2.73;;;12.80;51.40;;;;;;5091448;28;20464;-68
2021/04/09 12:00:22;;;;;;;3.57;3.27;;;12.80;54.30;;;;;;5091198;28;20429;-67
2021/04/09 12:02:51;;;;;;;2.90;2.30;;;13.10;52.00;;;;;;5111038;28;20975;-67
2021/04/09 12:05:20;;;;;;;9.53;2.27;;;13.20;52.80;;;;;;5111542;28;20443;-66
2021/04/09 12:07:47;;;;;;;4.10;2.50;;;13.50;52.00;;;;;;5111366;28;20432;-66
2021/04/09 12:10:15;;;;;;;3.37;2.43;;;13.70;50.80;;;;;;5111229;28;20431;-67
2021/04/09 12:12:43;;;;;;;4.00;3.07;;;14.00;51.00;;;;;;5111456;28;20469;-67
2021/04/09 12:15:10;;;;;;;5.67;2.70;;;13.90;49.90;;;;;;5111330;28;20777;-67
2021/04/09 12:17:37;;;;;;;3.03;2.53;;;13.70;52.40;;;;;;5111204;28;20464;-66
2021/04/09 12:20:08;;;;;;;3.30;2.43;;;13.60;49.90;;;;;;5111244;28;20785;-67
2021/04/09 12:22:36;;;;;;;2.23;2.03;;;13.20;49.80;;;;;;5110137;28;20448;-67
2021/04/09 12:25:05;;;;;;;2.90;1.97;;;12.70;49.10;;;;;;5111654;28;20485;-67
2021/04/09 12:27:31;;;;;;;3.13;2.03;;;12.40;50.70;;;;;;5104021;28;20509;-67
2021/04/09 12:29:58;;;;;;;3.00;2.33;;;12.30;50.80;;;;;;5107177;28;20428;-67
2021/04/09 12:32:25;;;;;;;2.87;2.57;;;12.30;50.70;;;;;;5098185;28;20457;-66
2021/04/09 12:34:52;;;;;;;3.10;2.77;;;12.40;50.30;;;;;;5090961;28;20421;-66
2021/04/09 12:37:19;;;;;;;9.73;2.97;;;12.50;51.50;;;;;;5090817;28;20873;-66
2021/04/09 12:39:48;;;;;;;2.53;2.00;;;12.60;50.90;;;;;;5094537;28;20483;-67
2021/04/09 12:42:15;;;;;;;5.17;2.90;;;12.50;50.70;;;;;;5111389;28;20460;-66
2021/04/09 12:44:42;;;;;;;4.93;3.20;;;12.80;50.90;;;;;;5111098;28;20442;-67
2021/04/09 12:47:09;;;;;;;3.53;2.13;;;13.20;49.80;;;;;;5110839;28;20444;-67
2021/04/09 12:49:36;;;;;;;3.37;2.73;;;13.50;51.90;;;;;;5110829;28;20490;-67
2021/04/09 12:52:04;;;;;;;3.00;2.13;;;13.90;51.10;;;;;;5099794;28;20459;-64
2021/04/09 12:54:31;;;;;;;6.47;2.83;;;14.00;51.40;;;;;;5090866;28;20441;-65
2021/04/09 12:56:59;;;;;;;8.83;2.33;;;14.10;51.50;;;;;;5090834;28;20457;-64
2021/04/09 12:59:25;;;;;;;3.93;2.40;;;14.30;48.80;;;;;;5090698;28;20936;-66
2021/04/09 13:01:52;;;;;;;3.30;1.97;;;14.40;49.00;;;;;;5090615;28;20863;-66
2021/04/09 13:04:19;;;;;;;2.20;1.90;;;14.40;49.50;;;;;;5090652;28;20427;-66